createdAt,value
2018-04-29T00:00:44.207Z,14.03
2018-04-29T00:01:44.261Z,13.96
2018-04-29T00:03:37.291Z,13.99
2018-04-29T00:04:37.314Z,13.92
2018-04-29T00:06:30.309Z,13.86
2018-04-29T00:07:30.367Z,13.90
2018-04-29T00:09:23.388Z,13.87
2018-04-29T00:10:23.426Z,13.89
2018-04-29T00:12:16.420Z,13.90
2018-04-29T00:13:16.479Z,13.78
2018-04-29T00:15:09.481Z,13.85
2018-04-29T00:16:09.540Z,13.83
2018-04-29T00:18:02.531Z,13.83
2018-04-29T00:19:02.601Z,13.74
2018-04-29T00:20:55.591Z,13.75
2018-04-29T00:21:55.642Z,13.70
2018-04-29T00:23:48.630Z,13.60
2018-04-29T00:24:48.690Z,13.54
2018-04-29T00:26:41.687Z,13.63
2018-04-29T00:27:41.743Z,13.68
2018-04-29T00:29:34.750Z,13.70
2018-04-29T00:30:34.803Z,13.63
2018-04-29T00:32:27.782Z,13.59
2018-04-29T00:33:27.841Z,13.60
2018-04-29T00:35:20.838Z,13.65
2018-04-29T00:36:20.892Z,13.59
2018-04-29T00:38:13.878Z,13.52
2018-04-29T00:39:13.941Z,13.52
2018-04-29T00:41:06.935Z,13.44
2018-04-29T00:42:06.986Z,13.52
2018-04-29T00:43:59.982Z,13.59
2018-04-29T00:45:00.037Z,13.57
2018-04-29T00:46:53.031Z,13.53
2018-04-29T00:47:53.083Z,13.54
2018-04-29T00:49:46.086Z,13.44
2018-04-29T00:50:46.130Z,13.52
2018-04-29T00:52:39.114Z,13.46
2018-04-29T00:53:39.176Z,13.30
2018-04-29T00:55:32.197Z,13.25
2018-04-29T00:56:32.250Z,13.22
2018-04-29T00:58:25.234Z,13.12
2018-04-29T00:59:25.296Z,13.16
2018-04-29T01:01:18.287Z,13.19
2018-04-29T01:02:18.341Z,13.15
2018-04-29T01:04:11.331Z,13.03
2018-04-29T01:05:11.392Z,13.04
2018-04-29T01:07:04.387Z,13.13
2018-04-29T01:08:04.438Z,13.11
2018-04-29T01:09:57.451Z,13.12
2018-04-29T01:10:57.486Z,13.00
2018-04-29T01:12:50.471Z,13.03
2018-04-29T01:13:50.534Z,12.97
2018-04-29T01:15:43.530Z,12.94
2018-04-29T01:16:43.582Z,12.94
2018-04-29T01:18:36.568Z,12.94
2018-04-29T01:19:36.627Z,12.93
2018-04-29T01:21:29.618Z,12.93
2018-04-29T01:22:29.673Z,12.98
2018-04-29T01:24:22.658Z,12.86
2018-04-29T01:25:22.719Z,12.86
2018-04-29T01:27:15.707Z,12.83
2018-04-29T01:28:15.765Z,12.83
2018-04-29T01:30:08.770Z,12.87
2018-04-29T01:31:08.821Z,12.83
2018-04-29T01:33:01.810Z,12.93
2018-04-29T01:34:01.878Z,12.82
2018-04-29T01:35:54.875Z,12.87
2018-04-29T01:36:54.930Z,12.83
2018-04-29T01:38:47.916Z,12.85
2018-04-29T01:39:47.978Z,12.93
2018-04-29T01:41:40.979Z,12.90
2018-04-29T01:42:41.025Z,12.95
2018-04-29T01:44:34.014Z,12.90
2018-04-29T01:45:34.074Z,12.79
2018-04-29T01:47:27.068Z,12.91
2018-04-29T01:48:27.123Z,12.79
2018-04-29T01:50:20.152Z,12.86
2018-04-29T01:51:20.169Z,12.91
2018-04-29T01:53:13.184Z,12.75
2018-04-29T01:54:13.234Z,12.67
2018-04-29T01:56:06.258Z,12.65
2018-04-29T01:57:06.272Z,12.61
2018-04-29T01:58:59.259Z,12.64
2018-04-29T01:59:59.319Z,12.53
2018-04-29T02:01:52.315Z,12.53
2018-04-29T02:02:52.364Z,12.53
2018-04-29T02:04:45.347Z,12.61
2018-04-29T02:05:45.408Z,12.64
2018-04-29T02:07:38.405Z,12.64
2018-04-29T02:08:38.464Z,12.64
2018-04-29T02:10:31.481Z,12.47
2018-04-29T02:11:31.516Z,12.45
2018-04-29T02:13:24.509Z,12.50
2018-04-29T02:14:24.570Z,12.50
2018-04-29T02:16:17.566Z,12.43
2018-04-29T02:17:17.616Z,12.43
2018-04-29T02:19:10.645Z,12.36
2018-04-29T02:20:10.662Z,12.28
2018-04-29T02:22:03.657Z,12.35
2018-04-29T02:23:03.711Z,12.18
2018-04-29T02:24:56.702Z,12.24
2018-04-29T02:25:56.759Z,12.17
2018-04-29T02:27:49.753Z,12.06
2018-04-29T02:28:49.809Z,12.07
2018-04-29T02:30:42.800Z,11.99
2018-04-29T02:31:42.848Z,11.90
2018-04-29T02:33:35.838Z,11.94
2018-04-29T02:34:35.897Z,11.90
2018-04-29T02:36:28.896Z,11.87
2018-04-29T02:37:28.949Z,11.81
2018-04-29T02:39:21.932Z,11.73
2018-04-29T02:40:22.002Z,11.70
2018-04-29T02:42:14.991Z,11.69
2018-04-29T02:43:15.045Z,11.59
2018-04-29T02:45:08.030Z,11.55
2018-04-29T02:46:08.093Z,11.50
2018-04-29T02:48:01.080Z,11.45
2018-04-29T02:49:01.164Z,11.47
2018-04-29T02:50:54.141Z,11.47
2018-04-29T02:51:54.180Z,11.30
2018-04-29T02:53:47.170Z,11.29
2018-04-29T02:54:47.233Z,11.25
2018-04-29T02:56:40.225Z,11.18
2018-04-29T02:57:40.277Z,11.08
2018-04-29T02:59:33.260Z,11.17
2018-04-29T03:00:33.320Z,11.19
2018-04-29T03:02:26.314Z,11.23
2018-04-29T03:03:26.370Z,11.22
2018-04-29T03:05:19.351Z,11.17
2018-04-29T03:06:19.418Z,11.19
2018-04-29T03:08:12.408Z,11.15
2018-04-29T03:09:12.453Z,11.12
2018-04-29T03:11:05.502Z,11.08
2018-04-29T03:12:05.503Z,10.99
2018-04-29T03:13:58.486Z,11.11
2018-04-29T03:14:58.552Z,11.17
2018-04-29T03:16:51.544Z,11.17
2018-04-29T03:17:51.597Z,11.14
2018-04-29T03:19:44.585Z,11.19
2018-04-29T03:20:44.645Z,11.22
2018-04-29T03:22:37.631Z,11.10
2018-04-29T03:23:37.684Z,11.12
2018-04-29T03:25:31.177Z,11.10
2018-04-29T03:26:31.235Z,11.11
2018-04-29T03:28:24.225Z,11.00
2018-04-29T03:29:24.278Z,11.02
2018-04-29T03:31:17.280Z,10.99
2018-04-29T03:32:17.325Z,10.96
2018-04-29T03:34:10.307Z,10.84
2018-04-29T03:35:10.368Z,10.75
2018-04-29T03:37:03.363Z,10.78
2018-04-29T03:38:03.422Z,10.69
2018-04-29T03:39:56.404Z,10.67
2018-04-29T03:40:56.459Z,10.67
2018-04-29T03:42:49.458Z,10.64
2018-04-29T03:43:49.505Z,10.75
2018-04-29T03:45:42.491Z,10.78
2018-04-29T03:46:42.553Z,10.64
2018-04-29T03:48:35.539Z,10.57
2018-04-29T03:49:35.593Z,10.64
2018-04-29T03:51:28.602Z,10.69
2018-04-29T03:52:28.639Z,10.59
2018-04-29T03:54:21.623Z,10.46
2018-04-29T03:55:21.683Z,10.41
2018-04-29T03:57:14.681Z,10.40
2018-04-29T03:58:14.737Z,10.51
2018-04-29T04:00:07.725Z,10.44
2018-04-29T04:01:07.783Z,10.54
2018-04-29T04:03:00.776Z,10.69
2018-04-29T04:04:00.827Z,10.69
2018-04-29T04:05:53.825Z,10.69
2018-04-29T04:06:53.883Z,10.71
2018-04-29T04:08:46.871Z,10.67
2018-04-29T04:09:46.965Z,10.79
2018-04-29T04:11:39.918Z,10.69
2018-04-29T04:12:39.966Z,10.68
2018-04-29T04:14:32.949Z,10.64
2018-04-29T04:15:33.009Z,10.53
2018-04-29T04:17:26.046Z,10.59
2018-04-29T04:18:26.053Z,10.56
2018-04-29T04:20:19.039Z,10.54
2018-04-29T04:21:19.100Z,10.38
2018-04-29T04:23:12.095Z,10.35
2018-04-29T04:24:12.146Z,10.40
2018-04-29T04:26:05.637Z,10.37
2018-04-29T04:27:05.695Z,10.49
2018-04-29T04:28:58.692Z,10.38
2018-04-29T04:29:58.738Z,10.41
2018-04-29T04:31:51.744Z,10.48
2018-04-29T04:32:51.789Z,10.38
2018-04-29T04:34:44.771Z,10.51
2018-04-29T04:35:44.833Z,10.49
2018-04-29T04:37:37.813Z,10.64
2018-04-29T04:38:37.874Z,10.64
2018-04-29T04:40:30.857Z,10.63
2018-04-29T04:41:30.920Z,10.61
2018-04-29T04:43:23.909Z,10.67
2018-04-29T04:44:23.963Z,10.68
2018-04-29T04:46:16.946Z,10.89
2018-04-29T04:47:17.008Z,10.81
2018-04-29T04:49:10.008Z,10.89
2018-04-29T04:50:10.052Z,10.86
2018-04-29T04:52:03.066Z,10.87
2018-04-29T04:53:03.096Z,10.72
2018-04-29T04:54:56.080Z,10.72
2018-04-29T04:55:56.139Z,10.87
2018-04-29T04:57:49.140Z,10.75
2018-04-29T04:58:49.180Z,10.81
2018-04-29T05:00:42.165Z,10.82
2018-04-29T05:01:42.224Z,10.82
2018-04-29T05:03:35.219Z,10.87
2018-04-29T05:04:35.269Z,10.89
2018-04-29T05:06:28.250Z,10.82
2018-04-29T05:07:28.341Z,10.84
2018-04-29T05:09:21.301Z,10.81
2018-04-29T05:10:21.355Z,10.92
2018-04-29T05:12:14.349Z,10.82
2018-04-29T05:13:14.399Z,10.93
2018-04-29T05:15:07.383Z,10.93
2018-04-29T05:16:07.444Z,10.92
2018-04-29T05:18:00.941Z,10.84
2018-04-29T05:19:00.994Z,10.97
2018-04-29T05:20:53.980Z,11.08
2018-04-29T05:21:54.036Z,11.10
2018-04-29T05:23:47.030Z,11.26
2018-04-29T05:24:47.079Z,11.44
2018-04-29T05:26:40.063Z,11.52
2018-04-29T05:27:40.124Z,11.62
2018-04-29T05:29:33.111Z,11.73
2018-04-29T05:30:33.166Z,11.86
2018-04-29T05:32:26.179Z,11.95
2018-04-29T05:33:26.211Z,11.95
2018-04-29T05:35:19.281Z,11.91
2018-04-29T05:36:19.257Z,12.00
2018-04-29T05:38:12.251Z,11.99
2018-04-29T05:39:12.307Z,12.00
2018-04-29T05:41:05.339Z,12.07
2018-04-29T05:42:05.353Z,12.03
2018-04-29T05:43:58.347Z,12.24
2018-04-29T05:44:58.398Z,12.36
2018-04-29T05:46:51.386Z,12.64
2018-04-29T05:47:51.447Z,12.72
2018-04-29T05:49:44.446Z,12.98
2018-04-29T05:50:44.491Z,13.15
2018-04-29T05:52:37.487Z,13.41
2018-04-29T05:53:37.534Z,13.42
2018-04-29T05:55:30.525Z,13.38
2018-04-29T05:56:30.585Z,13.62
2018-04-29T05:58:23.589Z,13.86
2018-04-29T05:59:23.639Z,13.85
2018-04-29T06:01:16.629Z,13.95
2018-04-29T06:02:16.689Z,14.10
2018-04-29T06:04:09.682Z,14.20
2018-04-29T06:05:09.737Z,14.28
2018-04-29T06:07:02.725Z,14.33
2018-04-29T06:08:02.789Z,14.59
2018-04-29T06:09:55.779Z,15.07
2018-04-29T06:10:55.833Z,15.04
2018-04-29T06:12:48.835Z,14.79
2018-04-29T06:13:48.880Z,14.84
2018-04-29T06:15:41.868Z,15.29
2018-04-29T06:16:41.928Z,15.80
2018-04-29T06:18:35.433Z,17.49
2018-04-29T06:19:35.484Z,18.43
2018-04-29T06:21:28.470Z,17.98
2018-04-29T06:22:28.531Z,17.76
2018-04-29T06:24:21.529Z,17.89
2018-04-29T06:25:21.584Z,17.90
2018-04-29T06:27:14.593Z,17.20
2018-04-29T06:28:14.644Z,16.99
2018-04-29T06:30:07.645Z,16.60
2018-04-29T06:31:07.704Z,16.72
2018-04-29T06:33:00.702Z,17.46
2018-04-29T06:34:00.761Z,18.11
2018-04-29T06:35:53.756Z,19.45
2018-04-29T06:36:53.827Z,19.73
2018-04-29T06:38:46.865Z,20.72
2018-04-29T06:39:46.882Z,20.72
2018-04-29T06:41:39.871Z,20.36
2018-04-29T06:42:39.937Z,21.02
2018-04-29T06:44:32.941Z,22.76
2018-04-29T06:45:33.000Z,23.55
2018-04-29T06:47:25.994Z,24.57
2018-04-29T06:48:26.064Z,25.06
2018-04-29T06:50:19.064Z,23.37
2018-04-29T06:51:19.123Z,22.90
2018-04-29T06:53:12.136Z,21.37
2018-04-29T06:54:12.191Z,20.74
2018-04-29T06:56:05.195Z,19.96
2018-04-29T06:57:05.263Z,19.62
2018-04-29T06:58:58.268Z,19.09
2018-04-29T06:59:58.326Z,19.09
2018-04-29T07:01:51.333Z,20.81
2018-04-29T07:02:51.395Z,22.78
2018-04-29T07:04:44.400Z,25.28
2018-04-29T07:05:44.466Z,24.57
2018-04-29T07:07:37.462Z,24.23
2018-04-29T07:08:37.533Z,24.93
2018-04-29T07:10:30.537Z,26.58
2018-04-29T07:11:30.602Z,27.27
2018-04-29T07:13:23.608Z,27.40
2018-04-29T07:14:23.671Z,26.53
2018-04-29T07:16:16.678Z,23.46
2018-04-29T07:17:16.750Z,22.57
2018-04-29T07:19:09.760Z,21.45
2018-04-29T07:20:09.823Z,20.92
2018-04-29T07:22:02.833Z,20.44
2018-04-29T07:23:02.901Z,20.26
2018-04-29T07:24:55.912Z,19.79
2018-04-29T07:25:55.976Z,19.59
2018-04-29T07:27:48.987Z,18.99
2018-04-29T07:28:49.045Z,18.96
2018-04-29T07:30:42.049Z,18.66
2018-04-29T07:31:42.146Z,18.55
2018-04-29T07:33:35.137Z,18.18
2018-04-29T07:34:35.186Z,18.01
2018-04-29T07:36:28.183Z,18.38
2018-04-29T07:37:28.254Z,18.33
2018-04-29T07:39:21.252Z,18.03
2018-04-29T07:40:21.313Z,17.95
2018-04-29T07:42:14.312Z,17.92
2018-04-29T07:43:14.378Z,17.80
2018-04-29T07:45:07.382Z,17.71
2018-04-29T07:46:07.441Z,17.71
2018-04-29T07:48:00.441Z,17.64
2018-04-29T07:49:00.509Z,17.74
2018-04-29T07:50:53.501Z,17.86
2018-04-29T07:51:53.558Z,17.85
2018-04-29T07:53:46.566Z,17.85
2018-04-29T07:54:46.621Z,17.92
2018-04-29T07:56:39.619Z,17.64
2018-04-29T07:57:39.687Z,17.54
2018-04-29T07:59:32.709Z,17.33
2018-04-29T08:00:32.844Z,17.29
2018-04-29T08:02:25.761Z,17.29
2018-04-29T08:03:25.827Z,17.24
2018-04-29T08:05:18.825Z,17.29
2018-04-29T08:06:18.880Z,17.44
2018-04-29T08:08:11.880Z,17.42
2018-04-29T08:09:11.945Z,17.42
2018-04-29T08:11:04.945Z,17.38
2018-04-29T08:12:05.000Z,17.42
2018-04-29T08:13:58.028Z,17.26
2018-04-29T08:14:58.187Z,17.19
2018-04-29T08:16:51.058Z,17.23
2018-04-29T08:17:51.121Z,17.15
2018-04-29T08:19:44.127Z,17.15
2018-04-29T08:20:44.184Z,16.93
2018-04-29T08:22:37.187Z,17.05
2018-04-29T08:23:37.238Z,17.02
2018-04-29T08:25:30.249Z,17.01
2018-04-29T08:26:30.311Z,16.99
2018-04-29T08:28:23.305Z,17.01
2018-04-29T08:29:23.366Z,16.84
2018-04-29T08:31:16.365Z,17.02
2018-04-29T08:32:16.419Z,17.12
2018-04-29T08:34:09.420Z,17.12
2018-04-29T08:35:09.536Z,17.08
2018-04-29T08:37:02.516Z,16.89
2018-04-29T08:38:02.545Z,16.81
2018-04-29T08:39:55.561Z,16.75
2018-04-29T08:40:55.584Z,16.75
2018-04-29T08:42:48.629Z,16.68
2018-04-29T08:43:48.640Z,16.65
2018-04-29T08:45:41.640Z,16.84
2018-04-29T08:46:41.706Z,17.24
2018-04-29T08:48:34.759Z,18.31
2018-04-29T08:49:34.754Z,18.49
2018-04-29T08:51:27.752Z,18.58
2018-04-29T08:52:27.816Z,18.43
2018-04-29T08:54:20.817Z,17.94
2018-04-29T08:55:20.869Z,17.85
2018-04-29T08:57:13.869Z,17.71
2018-04-29T08:58:13.933Z,17.74
2018-04-29T09:00:06.930Z,18.08
2018-04-29T09:01:06.988Z,18.19
2018-04-29T09:02:59.980Z,18.43
2018-04-29T09:04:00.078Z,18.88
2018-04-29T09:05:54.064Z,18.63
2018-04-29T09:06:53.123Z,18.35
2018-04-29T09:08:46.123Z,17.89
2018-04-29T09:09:46.189Z,17.79
2018-04-29T09:11:39.191Z,17.41
2018-04-29T09:12:39.247Z,17.16
2018-04-29T09:14:32.257Z,17.01
2018-04-29T09:15:32.308Z,16.87
2018-04-29T09:17:25.305Z,17.01
2018-04-29T09:18:25.383Z,17.01
2018-04-29T09:20:18.366Z,17.06
2018-04-29T09:21:18.423Z,17.15
2018-04-29T09:23:11.444Z,17.12
2018-04-29T09:24:11.479Z,17.11
2018-04-29T09:26:04.480Z,17.51
2018-04-29T09:27:04.536Z,17.42
2018-04-29T09:28:57.529Z,17.23
2018-04-29T09:29:57.592Z,17.27
2018-04-29T09:31:50.612Z,17.02
2018-04-29T09:32:50.658Z,16.94
2018-04-29T09:34:43.687Z,16.93
2018-04-29T09:35:43.794Z,16.87
2018-04-29T09:37:36.764Z,16.79
2018-04-29T09:38:36.767Z,16.75
2018-04-29T09:40:29.763Z,16.79
2018-04-29T09:41:29.819Z,16.71
2018-04-29T09:43:22.881Z,16.56
2018-04-29T09:44:22.890Z,16.61
2018-04-29T09:46:15.871Z,16.47
2018-04-29T09:47:15.928Z,16.50
2018-04-29T09:49:08.919Z,16.66
2018-04-29T09:50:08.980Z,16.65
2018-04-29T09:52:01.988Z,16.74
2018-04-29T09:53:02.041Z,16.72
2018-04-29T09:54:55.045Z,16.93
2018-04-29T09:55:55.089Z,17.05
2018-04-29T09:57:48.079Z,17.34
2018-04-29T09:58:48.145Z,17.56
2018-04-29T10:00:41.142Z,17.82
2018-04-29T10:01:41.199Z,17.90
2018-04-29T10:03:34.197Z,17.86
2018-04-29T10:04:34.257Z,17.94
2018-04-29T10:06:27.251Z,17.98
2018-04-29T10:07:27.314Z,18.22
2018-04-29T10:09:20.298Z,18.41
2018-04-29T10:10:20.363Z,18.53
2018-04-29T10:12:13.362Z,18.60
2018-04-29T10:13:13.421Z,18.50
2018-04-29T10:15:06.422Z,18.60
2018-04-29T10:16:06.479Z,18.80
2018-04-29T10:17:59.512Z,18.75
2018-04-29T10:18:59.536Z,18.71
2018-04-29T10:20:52.535Z,18.77
2018-04-29T10:21:52.594Z,18.81
2018-04-29T10:23:45.585Z,18.83
2018-04-29T10:24:45.649Z,18.88
2018-04-29T10:26:38.652Z,18.99
2018-04-29T10:27:38.712Z,19.00
2018-04-29T10:29:31.706Z,19.37
2018-04-29T10:30:31.777Z,19.51
2018-04-29T10:32:24.878Z,19.89
2018-04-29T10:33:24.830Z,20.24
2018-04-29T10:35:17.833Z,20.75
2018-04-29T10:36:17.888Z,20.07
2018-04-29T10:38:10.892Z,20.26
2018-04-29T10:39:10.949Z,20.29
2018-04-29T10:41:04.041Z,20.28
2018-04-29T10:42:04.011Z,20.16
2018-04-29T10:43:57.018Z,20.11
2018-04-29T10:44:57.081Z,20.02
2018-04-29T10:46:50.083Z,19.66
2018-04-29T10:47:50.158Z,19.41
2018-04-29T10:49:43.140Z,19.59
2018-04-29T10:50:43.206Z,19.70
2018-04-29T10:52:36.280Z,20.02
2018-04-29T10:53:36.290Z,20.16
2018-04-29T10:55:29.278Z,20.16
2018-04-29T10:56:29.340Z,20.26
2018-04-29T10:58:22.346Z,20.09
2018-04-29T10:59:22.409Z,20.04
2018-04-29T11:01:15.417Z,19.86
2018-04-29T11:02:15.476Z,19.86
2018-04-29T11:04:08.469Z,19.74
2018-04-29T11:05:08.536Z,19.74
2018-04-29T11:07:01.547Z,19.77
2018-04-29T11:08:01.600Z,19.54
2018-04-29T11:09:54.604Z,19.37
2018-04-29T11:10:54.672Z,19.55
2018-04-29T11:12:47.664Z,19.49
2018-04-29T11:13:47.743Z,19.74
2018-04-29T11:15:40.734Z,20.00
2018-04-29T11:16:40.796Z,20.07
2018-04-29T11:18:33.797Z,20.25
2018-04-29T11:19:33.853Z,20.24
2018-04-29T11:21:26.855Z,20.41
2018-04-29T11:22:27.004Z,20.37
2018-04-29T11:24:19.911Z,20.55
2018-04-29T11:25:19.993Z,20.36
2018-04-29T11:27:12.992Z,20.09
2018-04-29T11:28:13.054Z,20.19
2018-04-29T11:30:06.077Z,20.02
2018-04-29T11:31:06.126Z,20.07
2018-04-29T11:32:59.127Z,20.32
2018-04-29T11:33:59.189Z,20.44
2018-04-29T11:35:52.195Z,20.59
2018-04-29T11:36:52.248Z,20.56
2018-04-29T11:38:45.247Z,20.52
2018-04-29T11:39:45.429Z,20.75
2018-04-29T11:41:38.319Z,20.75
2018-04-29T11:42:38.376Z,20.74
2018-04-29T11:44:31.373Z,21.00
2018-04-29T11:45:31.442Z,20.99
2018-04-29T11:47:24.452Z,20.96
2018-04-29T11:48:24.505Z,20.96
2018-04-29T11:50:17.507Z,20.82
2018-04-29T11:51:17.566Z,20.81
2018-04-29T11:53:10.570Z,20.82
2018-04-29T11:54:10.630Z,21.17
2018-04-29T11:56:03.633Z,21.37
2018-04-29T11:57:03.690Z,21.50
2018-04-29T11:58:56.698Z,21.50
2018-04-29T11:59:56.766Z,21.60
2018-04-29T12:01:49.802Z,21.43
2018-04-29T12:02:49.825Z,21.37
2018-04-29T12:04:42.836Z,21.43
2018-04-29T12:05:42.902Z,21.40
2018-04-29T12:07:35.905Z,21.48
2018-04-29T12:08:35.961Z,21.37
2018-04-29T12:10:28.975Z,21.37
2018-04-29T12:11:29.063Z,21.58
2018-04-29T12:13:22.047Z,21.77
2018-04-29T12:14:22.106Z,21.99
2018-04-29T12:16:15.111Z,21.82
2018-04-29T12:17:15.171Z,21.55
2018-04-29T12:19:08.176Z,21.54
2018-04-29T12:20:08.244Z,21.50
2018-04-29T12:22:01.244Z,21.51
2018-04-29T12:23:01.306Z,21.43
2018-04-29T12:24:54.307Z,21.52
2018-04-29T12:25:54.370Z,21.42
2018-04-29T12:27:47.378Z,21.61
2018-04-29T12:28:47.439Z,21.64
2018-04-29T12:30:40.439Z,21.80
2018-04-29T12:31:40.509Z,21.67
2018-04-29T12:33:33.567Z,21.73
2018-04-29T12:34:33.568Z,21.98
2018-04-29T12:36:26.568Z,21.93
2018-04-29T12:37:26.629Z,21.98
2018-04-29T12:39:19.631Z,22.04
2018-04-29T12:40:19.691Z,22.13
2018-04-29T12:42:12.695Z,21.80
2018-04-29T12:43:12.752Z,21.83
2018-04-29T12:45:05.765Z,22.07
2018-04-29T12:46:05.812Z,22.22
2018-04-29T12:47:58.827Z,22.08
2018-04-29T12:48:58.888Z,22.26
2018-04-29T12:50:51.898Z,22.13
2018-04-29T12:51:52.069Z,22.02
2018-04-29T12:53:44.975Z,21.95
2018-04-29T12:54:45.038Z,21.82
2018-04-29T12:56:38.033Z,21.73
2018-04-29T12:57:38.101Z,21.77
2018-04-29T12:59:31.115Z,21.66
2018-04-29T13:00:31.164Z,21.69
2018-04-29T13:02:24.167Z,21.91
2018-04-29T13:03:24.230Z,21.85
2018-04-29T13:05:17.226Z,22.07
2018-04-29T13:06:17.289Z,21.95
2018-04-29T13:08:10.308Z,21.99
2018-04-29T13:09:10.351Z,22.14
2018-04-29T13:11:03.351Z,22.08
2018-04-29T13:12:03.405Z,22.22
2018-04-29T13:13:56.415Z,22.30
2018-04-29T13:14:56.483Z,22.30
2018-04-29T13:16:49.481Z,22.11
2018-04-29T13:17:49.538Z,22.15
2018-04-29T13:19:42.541Z,22.17
2018-04-29T13:20:42.601Z,22.14
2018-04-29T13:22:35.605Z,22.20
2018-04-29T13:23:35.665Z,22.15
2018-04-29T13:25:28.664Z,21.89
2018-04-29T13:26:28.729Z,22.17
2018-04-29T13:28:21.732Z,22.06
2018-04-29T13:29:21.835Z,22.26
2018-04-29T13:31:14.808Z,22.10
2018-04-29T13:32:14.868Z,22.17
2018-04-29T13:34:07.884Z,22.39
2018-04-29T13:35:07.945Z,22.50
2018-04-29T13:37:00.935Z,22.28
2018-04-29T13:38:01.010Z,22.45
2018-04-29T13:39:53.998Z,22.30
2018-04-29T13:40:54.063Z,22.33
2018-04-29T13:42:47.063Z,22.47
2018-04-29T13:43:47.129Z,22.33
2018-04-29T13:45:40.119Z,22.02
2018-04-29T13:46:40.183Z,21.98
2018-04-29T13:48:33.189Z,22.07
2018-04-29T13:49:33.248Z,22.14
2018-04-29T13:51:26.240Z,22.22
2018-04-29T13:52:26.308Z,22.17
2018-04-29T13:54:19.310Z,22.15
2018-04-29T13:55:19.368Z,22.11
2018-04-29T13:57:12.364Z,22.33
2018-04-29T13:58:12.433Z,22.47
2018-04-29T14:00:05.433Z,22.54
2018-04-29T14:01:05.497Z,22.43
2018-04-29T14:02:58.503Z,22.17
2018-04-29T14:03:58.556Z,21.96
2018-04-29T14:05:51.567Z,21.72
2018-04-29T14:06:51.627Z,21.99
2018-04-29T14:08:44.634Z,22.00
2018-04-29T14:09:44.688Z,22.08
2018-04-29T14:11:37.686Z,22.28
2018-04-29T14:12:37.821Z,22.15
2018-04-29T14:14:30.754Z,22.25
2018-04-29T14:15:30.807Z,22.15
2018-04-29T14:17:23.812Z,22.13
2018-04-29T14:18:23.876Z,22.07
2018-04-29T14:20:16.878Z,22.11
2018-04-29T14:21:16.940Z,22.15
2018-04-29T14:23:09.939Z,22.07
2018-04-29T14:24:10.001Z,22.22
2018-04-29T14:26:03.004Z,22.38
2018-04-29T14:27:03.083Z,22.23
2018-04-29T14:28:56.071Z,21.98
2018-04-29T14:29:56.134Z,21.92
2018-04-29T14:31:49.137Z,21.96
2018-04-29T14:32:49.197Z,22.00
2018-04-29T14:34:42.200Z,22.25
2018-04-29T14:35:42.254Z,22.17
2018-04-29T14:37:35.254Z,22.38
2018-04-29T14:38:35.519Z,22.43
2018-04-29T14:40:28.315Z,22.22
2018-04-29T14:41:28.377Z,22.30
2018-04-29T14:43:21.552Z,22.62
2018-04-29T14:44:21.440Z,22.69
2018-04-29T14:46:14.447Z,22.62
2018-04-29T14:47:14.515Z,22.36
2018-04-29T14:49:07.521Z,21.95
2018-04-29T14:50:07.578Z,21.88
2018-04-29T14:52:00.580Z,21.98
2018-04-29T14:53:00.686Z,21.92
2018-04-29T14:54:53.696Z,21.92
2018-04-29T14:55:53.723Z,22.00
2018-04-29T14:57:46.716Z,22.04
2018-04-29T14:58:46.782Z,22.00
2018-04-29T15:00:39.943Z,22.00
2018-04-29T15:01:39.952Z,21.99
2018-04-29T15:03:32.868Z,22.14
2018-04-29T15:04:32.927Z,22.08
2018-04-29T15:06:25.928Z,22.15
2018-04-29T15:07:25.987Z,22.18
2018-04-29T15:09:18.993Z,22.30
2018-04-29T15:10:19.051Z,22.13
2018-04-29T15:12:12.052Z,22.26
2018-04-29T15:13:12.154Z,22.22
2018-04-29T15:15:05.129Z,22.35
2018-04-29T15:16:05.377Z,22.32
2018-04-29T15:17:58.181Z,22.43
2018-04-29T15:18:58.241Z,22.33
2018-04-29T15:20:51.248Z,22.15
2018-04-29T15:21:51.312Z,22.17
2018-04-29T15:23:44.323Z,22.30
2018-04-29T15:24:44.367Z,22.33
2018-04-29T15:26:37.369Z,22.33
2018-04-29T15:27:37.438Z,22.43
2018-04-29T15:29:30.443Z,22.51
2018-04-29T15:30:30.507Z,22.59
2018-04-29T15:32:23.510Z,22.48
2018-04-29T15:33:23.677Z,22.41
2018-04-29T15:35:16.575Z,22.33
2018-04-29T15:36:16.634Z,22.32
2018-04-29T15:38:09.647Z,22.23
2018-04-29T15:39:09.710Z,22.14
2018-04-29T15:41:02.717Z,22.25
2018-04-29T15:42:02.770Z,22.15
2018-04-29T15:43:55.770Z,21.95
2018-04-29T15:44:55.832Z,21.98
2018-04-29T15:46:48.830Z,21.91
2018-04-29T15:47:48.896Z,21.79
2018-04-29T15:49:41.899Z,21.85
2018-04-29T15:50:41.958Z,21.82
2018-04-29T15:52:34.961Z,21.83
2018-04-29T15:53:35.022Z,21.76
2018-04-29T15:55:28.024Z,21.82
2018-04-29T15:56:28.085Z,21.69
2018-04-29T15:58:21.080Z,21.50
2018-04-29T15:59:21.146Z,21.51
2018-04-29T16:01:14.147Z,21.46
2018-04-29T16:02:14.208Z,21.46
2018-04-29T16:04:07.210Z,21.43
2018-04-29T16:05:07.267Z,21.45
2018-04-29T16:07:00.268Z,21.40
2018-04-29T16:08:00.334Z,21.50
2018-04-29T16:09:53.335Z,21.52
2018-04-29T16:10:53.395Z,21.52
2018-04-29T16:12:46.400Z,21.60
2018-04-29T16:13:46.470Z,21.52
2018-04-29T16:15:39.473Z,21.72
2018-04-29T16:16:39.536Z,21.67
2018-04-29T16:18:32.530Z,21.61
2018-04-29T16:19:32.595Z,21.60
2018-04-29T16:21:25.606Z,21.50
2018-04-29T16:22:25.667Z,21.50
2018-04-29T16:24:18.669Z,21.40
2018-04-29T16:25:18.756Z,21.50
2018-04-29T16:27:11.732Z,21.51
2018-04-29T16:28:11.792Z,21.40
2018-04-29T16:30:04.795Z,21.42
2018-04-29T16:31:04.854Z,21.39
2018-04-29T16:32:57.849Z,21.39
2018-04-29T16:33:57.934Z,21.43
2018-04-29T16:35:50.934Z,21.45
2018-04-29T16:36:50.976Z,21.43
2018-04-29T16:38:43.971Z,21.39
2018-04-29T16:39:44.035Z,21.37
2018-04-29T16:41:37.039Z,21.42
2018-04-29T16:42:37.096Z,21.29
2018-04-29T16:44:30.096Z,21.32
2018-04-29T16:45:30.155Z,21.24
2018-04-29T16:47:23.152Z,21.21
2018-04-29T16:48:23.216Z,21.25
2018-04-29T16:50:16.720Z,21.12
2018-04-29T16:51:16.776Z,21.17
2018-04-29T16:53:09.772Z,21.06
2018-04-29T16:54:09.889Z,21.11
2018-04-29T16:56:02.863Z,21.05
2018-04-29T16:57:02.906Z,21.06
2018-04-29T16:58:55.896Z,21.12
2018-04-29T16:59:55.963Z,21.18
2018-04-29T17:01:48.963Z,21.09
2018-04-29T17:02:49.015Z,21.07
2018-04-29T17:04:42.012Z,20.99
2018-04-29T17:05:42.226Z,20.99
2018-04-29T17:07:35.071Z,20.92
2018-04-29T17:08:35.134Z,20.84
2018-04-29T17:10:28.143Z,20.75
2018-04-29T17:11:28.203Z,20.75
2018-04-29T17:13:21.193Z,20.72
2018-04-29T17:14:21.264Z,20.75
2018-04-29T17:16:14.280Z,20.80
2018-04-29T17:17:14.319Z,20.70
2018-04-29T17:19:07.311Z,20.81
2018-04-29T17:20:07.380Z,20.78
2018-04-29T17:22:00.380Z,20.70
2018-04-29T17:23:00.514Z,20.67
2018-04-29T17:24:53.439Z,20.74
2018-04-29T17:25:53.501Z,20.72
2018-04-29T17:27:46.502Z,20.75
2018-04-29T17:28:46.564Z,20.72
2018-04-29T17:30:39.568Z,20.67
2018-04-29T17:31:39.629Z,20.66
2018-04-29T17:33:32.625Z,20.51
2018-04-29T17:34:32.690Z,20.58
2018-04-29T17:36:25.695Z,20.37
2018-04-29T17:37:25.750Z,20.44
2018-04-29T17:39:18.745Z,20.43
2018-04-29T17:40:18.809Z,20.43
2018-04-29T17:42:11.814Z,20.31
2018-04-29T17:43:11.877Z,20.44
2018-04-29T17:45:04.885Z,20.41
2018-04-29T17:46:04.940Z,20.48
2018-04-29T17:47:57.935Z,20.37
2018-04-29T17:48:58.005Z,20.34
2018-04-29T17:50:50.998Z,20.41
2018-04-29T17:51:51.065Z,20.41
2018-04-29T17:53:44.057Z,20.39
2018-04-29T17:54:44.120Z,20.36
2018-04-29T17:56:37.127Z,20.40
2018-04-29T17:57:37.187Z,20.24
2018-04-29T17:59:30.180Z,20.28
2018-04-29T18:00:30.248Z,20.22
2018-04-29T18:02:23.240Z,20.19
2018-04-29T18:03:23.292Z,20.21
2018-04-29T18:05:16.829Z,20.24
2018-04-29T18:06:16.874Z,20.18
2018-04-29T18:08:09.879Z,20.16
2018-04-29T18:09:09.972Z,20.19
2018-04-29T18:11:02.960Z,20.06
2018-04-29T18:12:03.018Z,20.04
2018-04-29T18:13:56.037Z,20.02
2018-04-29T18:14:56.086Z,20.02
2018-04-29T18:16:49.085Z,19.92
2018-04-29T18:17:49.148Z,20.02
2018-04-29T18:19:42.147Z,19.99
2018-04-29T18:20:42.204Z,19.94
2018-04-29T18:22:35.209Z,19.96
2018-04-29T18:23:35.267Z,19.88
2018-04-29T18:25:28.272Z,19.89
2018-04-29T18:26:28.327Z,19.92
2018-04-29T18:28:21.322Z,19.84
2018-04-29T18:29:21.390Z,19.85
2018-04-29T18:31:14.399Z,19.94
2018-04-29T18:32:14.449Z,19.76
2018-04-29T18:34:07.455Z,19.81